KSRQ/SRQ METAR and TAF weather

Enter ICAO airport designator
Station Type Date Time Source
KSRQ METAR 2021/07/28 03:53 UTC NOAA

KSRQ 280353Z AUTO 27005KT 10SM FEW021 29/24 A3001 RMK AO2 SLP161 T02890244


Station Type Date Time Source
KSRQ Decoded METAR 2021/07/28 03:53 UTC NOAA

SARASOTA/BRADENTON INTERNATIONAL ., FL, United States (KSRQ) 27-24N 082-33W 18M
Jul 27, 2021 - 11:53 PM EDT / 2021.07.28 0353 UTC
Wind: from the W (270 degrees) at 6 MPH (5 KT):0
Visibility: 10 mile(s):0
Sky conditions: mostly clear
Temperature: 84.0 F (28.9 C)
Dew Point: 75.9 F (24.4 C)
Relative Humidity: 76%
Pressure (altimeter): 30.01 in. Hg (1016 hPa)
ob: KSRQ 280353Z AUTO 27005KT 10SM FEW021 29/24 A3001 RMK AO2 SLP161 T02890244
cycle: 4

Station Type Date Time Source
KSRQ TAF 2021/07/27 21:03 UTC NOAA

TAF
AMD KSRQ 272100Z 2721/2818 26007KT P6SM VCTS FEW025CB BKN100 BKN250
FM280000 24005KT P6SM VCSH SCT025 SCT040 BKN120
FM280600 23004KT P6SM VCTS SCT025CB BKN040 BKN120
FM281400 27006KT P6SM VCTS SCT025CB SCT040 BKN120

Example: see airport list